sensor_id;sensor_type;location;lat;lon;timestamp;temperature;humidity
7000;DHT22;3540;53.242;10.408;2022-10-13T00:00:00;6.70;99.90
7000;DHT22;3540;53.242;10.408;2022-10-13T00:02:25;6.70;99.90
7000;DHT22;3540;53.242;10.408;2022-10-13T00:04:51;6.70;99.90
7000;DHT22;3540;53.242;10.408;2022-10-13T00:07:16;6.80;99.90
7000;DHT22;3540;53.242;10.408;2022-10-13T00:09:42;6.80;99.90
7000;DHT22;3540;53.242;10.408;2022-10-13T00:12:08;6.80;99.90
7000;DHT22;3540;53.242;10.408;2022-10-13T00:14:33;6.90;99.90
7000;DHT22;3540;53.242;10.408;2022-10-13T00:16:59;6.90;99.90
7000;DHT22;3540;53.242;10.408;2022-10-13T00:19:25;6.90;99.90
7000;DHT22;3540;53.242;10.408;2022-10-13T00:21:50;7.00;99.90
7000;DHT22;3540;53.242;10.408;2022-10-13T00:24:16;7.00;99.90
7000;DHT22;3540;53.242;10.408;2022-10-13T00:26:41;7.10;99.90
7000;DHT22;3540;53.242;10.408;2022-10-13T00:29:07;7.20;99.90
7000;DHT22;3540;53.242;10.408;2022-10-13T00:31:32;7.30;99.90
7000;DHT22;3540;53.242;10.408;2022-10-13T00:34:00;7.30;99.90
7000;DHT22;3540;53.242;10.408;2022-10-13T00:36:27;7.40;99.90
7000;DHT22;3540;53.242;10.408;2022-10-13T00:38:53;7.40;99.90
7000;DHT22;3540;53.242;10.408;2022-10-13T00:41:20;7.50;99.90
7000;DHT22;3540;53.242;10.408;2022-10-13T00:46:19;7.50;99.90
7000;DHT22;3540;53.242;10.408;2022-10-13T00:48:46;7.60;99.90
7000;DHT22;3540;53.242;10.408;2022-10-13T00:51:14;7.50;99.90
7000;DHT22;3540;53.242;10.408;2022-10-13T00:53:40;7.50;99.90
7000;DHT22;3540;53.242;10.408;2022-10-13T00:56:09;7.50;99.90
7000;DHT22;3540;53.242;10.408;2022-10-13T00:58:36;7.50;99.90
7000;DHT22;3540;53.242;10.408;2022-10-13T01:01:04;7.40;99.90
7000;DHT22;3540;53.242;10.408;2022-10-13T01:03:30;7.40;99.90
7000;DHT22;3540;53.242;10.408;2022-10-13T01:05:58;7.40;99.90
7000;DHT22;3540;53.242;10.408;2022-10-13T01:08:25;7.40;99.90
7000;DHT22;3540;53.242;10.408;2022-10-13T01:30:35;7.50;99.90
7000;DHT22;3540;53.242;10.408;2022-10-13T01:38:38;7.50;99.90
7000;DHT22;3540;53.242;10.408;2022-10-13T01:41:26;7.50;99.90
7000;DHT22;3540;53.242;10.408;2022-10-13T01:43:59;7.40;99.90
7000;DHT22;3540;53.242;10.408;2022-10-13T01:46:32;7.40;99.90
7000;DHT22;3540;53.242;10.408;2022-10-13T01:49:02;7.40;99.90
7000;DHT22;3540;53.242;10.408;2022-10-13T01:51:30;7.40;99.90
7000;DHT22;3540;53.242;10.408;2022-10-13T01:53:56;7.40;99.90
7000;DHT22;3540;53.242;10.408;2022-10-13T01:56:21;7.30;99.90
7000;DHT22;3540;53.242;10.408;2022-10-13T01:58:49;7.30;99.90
7000;DHT22;3540;53.242;10.408;2022-10-13T02:04:16;7.10;99.90
7000;DHT22;3540;53.242;10.408;2022-10-13T02:06:54;7.10;99.90
7000;DHT22;3540;53.242;10.408;2022-10-13T02:09:29;7.00;99.90
7000;DHT22;3540;53.242;10.408;2022-10-13T02:12:06;7.00;99.90
7000;DHT22;3540;53.242;10.408;2022-10-13T02:14:35;7.00;99.90
7000;DHT22;3540;53.242;10.408;2022-10-13T02:17:03;6.90;99.90
7000;DHT22;3540;53.242;10.408;2022-10-13T02:19:32;6.90;99.90
7000;DHT22;3540;53.242;10.408;2022-10-13T02:21:58;6.80;99.90
7000;DHT22;3540;53.242;10.408;2022-10-13T02:24:24;6.80;99.90
7000;DHT22;3540;53.242;10.408;2022-10-13T02:26:50;6.80;99.90
7000;DHT22;3540;53.242;10.408;2022-10-13T02:29:16;6.70;99.90
7000;DHT22;3540;53.242;10.408;2022-10-13T02:31:44;6.70;99.90
7000;DHT22;3540;53.242;10.408;2022-10-13T02:34:10;6.70;99.90
7000;DHT22;3540;53.242;10.408;2022-10-13T02:36:36;6.70;99.90
7000;DHT22;3540;53.242;10.408;2022-10-13T02:39:03;6.60;99.90
7000;DHT22;3540;53.242;10.408;2022-10-13T02:41:29;6.60;99.90
7000;DHT22;3540;53.242;10.408;2022-10-13T02:43:55;6.60;99.90
7000;DHT22;3540;53.242;10.408;2022-10-13T02:46:21;6.50;99.90
7000;DHT22;3540;53.242;10.408;2022-10-13T02:48:47;6.50;99.90
7000;DHT22;3540;53.242;10.408;2022-10-13T02:51:12;6.50;99.90
7000;DHT22;3540;53.242;10.408;2022-10-13T02:53:38;6.40;99.90
7000;DHT22;3540;53.242;10.408;2022-10-13T02:56:04;6.40;99.90
7000;DHT22;3540;53.242;10.408;2022-10-13T02:58:29;6.30;99.90
7000;DHT22;3540;53.242;10.408;2022-10-13T03:01:08;6.30;99.90
7000;DHT22;3540;53.242;10.408;2022-10-13T03:03:34;6.30;99.90
7000;DHT22;3540;53.242;10.408;2022-10-13T03:06:00;6.30;99.90
7000;DHT22;3540;53.242;10.408;2022-10-13T03:08:26;6.30;99.90
7000;DHT22;3540;53.242;10.408;2022-10-13T03:10:52;6.20;99.90
7000;DHT22;3540;53.242;10.408;2022-10-13T03:13:17;6.20;99.90
7000;DHT22;3540;53.242;10.408;2022-10-13T03:15:44;6.20;99.90
7000;DHT22;3540;53.242;10.408;2022-10-13T03:18:10;6.20;99.90
7000;DHT22;3540;53.242;10.408;2022-10-13T03:20:36;6.10;99.90
7000;DHT22;3540;53.242;10.408;2022-10-13T03:23:01;6.10;99.90
7000;DHT22;3540;53.242;10.408;2022-10-13T03:25:27;6.10;99.90
7000;DHT22;3540;53.242;10.408;2022-10-13T03:27:54;6.10;99.90
7000;DHT22;3540;53.242;10.408;2022-10-13T03:30:20;6.10;99.90
7000;DHT22;3540;53.242;10.408;2022-10-13T03:32:46;6.10;99.90
7000;DHT22;3540;53.242;10.408;2022-10-13T03:35:11;6.10;99.90
7000;DHT22;3540;53.242;10.408;2022-10-13T03:37:37;6.10;99.90
7000;DHT22;3540;53.242;10.408;2022-10-13T03:40:03;6.10;99.90
7000;DHT22;3540;53.242;10.408;2022-10-13T03:42:29;6.10;99.90
7000;DHT22;3540;53.242;10.408;2022-10-13T03:44:54;6.00;99.90
7000;DHT22;3540;53.242;10.408;2022-10-13T03:47:20;6.00;99.90
7000;DHT22;3540;53.242;10.408;2022-10-13T03:49:45;6.00;99.90
7000;DHT22;3540;53.242;10.408;2022-10-13T03:52:11;5.90;99.90
7000;DHT22;3540;53.242;10.408;2022-10-13T03:54:36;5.90;99.90
7000;DHT22;3540;53.242;10.408;2022-10-13T03:57:02;6.00;99.90
7000;DHT22;3540;53.242;10.408;2022-10-13T03:59:28;6.00;99.90
7000;DHT22;3540;53.242;10.408;2022-10-13T04:01:54;6.00;99.90
7000;DHT22;3540;53.242;10.408;2022-10-13T04:04:20;6.00;99.90
7000;DHT22;3540;53.242;10.408;2022-10-13T04:06:45;6.00;99.90
7000;DHT22;3540;53.242;10.408;2022-10-13T04:09:11;6.00;99.90
7000;DHT22;3540;53.242;10.408;2022-10-13T04:11:36;6.00;99.90
7000;DHT22;3540;53.242;10.408;2022-10-13T04:14:02;6.00;99.90
7000;DHT22;3540;53.242;10.408;2022-10-13T04:16:29;6.00;99.90
7000;DHT22;3540;53.242;10.408;2022-10-13T04:21:22;6.00;99.90
7000;DHT22;3540;53.242;10.408;2022-10-13T04:23:48;6.00;99.90
7000;DHT22;3540;53.242;10.408;2022-10-13T04:26:19;6.00;99.90
7000;DHT22;3540;53.242;10.408;2022-10-13T04:28:48;6.00;99.90
7000;DHT22;3540;53.242;10.408;2022-10-13T04:31:14;6.00;99.90
7000;DHT22;3540;53.242;10.408;2022-10-13T04:33:40;6.00;99.90
7000;DHT22;3540;53.242;10.408;2022-10-13T04:36:07;6.00;99.90
7000;DHT22;3540;53.242;10.408;2022-10-13T04:38:34;6.00;99.90
7000;DHT22;3540;53.242;10.408;2022-10-13T04:41:04;6.10;99.90
7000;DHT22;3540;53.242;10.408;2022-10-13T04:43:31;6.10;99.90
7000;DHT22;3540;53.242;10.408;2022-10-13T04:46:17;6.20;99.90
7000;DHT22;3540;53.242;10.408;2022-10-13T04:48:43;6.20;99.90
7000;DHT22;3540;53.242;10.408;2022-10-13T04:51:11;6.30;99.90
7000;DHT22;3540;53.242;10.408;2022-10-13T04:53:38;6.30;99.90
7000;DHT22;3540;53.242;10.408;2022-10-13T04:56:10;6.30;99.90
7000;DHT22;3540;53.242;10.408;2022-10-13T04:58:37;6.30;99.90
7000;DHT22;3540;53.242;10.408;2022-10-13T05:01:05;6.30;99.90
7000;DHT22;3540;53.242;10.408;2022-10-13T05:03:31;6.40;99.90
7000;DHT22;3540;53.242;10.408;2022-10-13T05:05:57;6.40;99.90
7000;DHT22;3540;53.242;10.408;2022-10-13T05:08:23;6.40;99.90
7000;DHT22;3540;53.242;10.408;2022-10-13T05:11:06;6.40;99.90
7000;DHT22;3540;53.242;10.408;2022-10-13T05:13:32;6.40;99.90
7000;DHT22;3540;53.242;10.408;2022-10-13T05:15:58;6.40;99.90
7000;DHT22;3540;53.242;10.408;2022-10-13T05:18:23;6.40;99.90
7000;DHT22;3540;53.242;10.408;2022-10-13T05:20:49;6.30;99.90
7000;DHT22;3540;53.242;10.408;2022-10-13T05:23:15;6.30;99.90
7000;DHT22;3540;53.242;10.408;2022-10-13T05:25:41;6.30;99.90
7000;DHT22;3540;53.242;10.408;2022-10-13T05:28:07;6.30;99.90
7000;DHT22;3540;53.242;10.408;2022-10-13T05:30:33;6.30;99.90
7000;DHT22;3540;53.242;10.408;2022-10-13T05:32:59;6.20;99.90
7000;DHT22;3540;53.242;10.408;2022-10-13T05:35:25;6.20;99.90
7000;DHT22;3540;53.242;10.408;2022-10-13T05:37:51;6.20;99.90
7000;DHT22;3540;53.242;10.408;2022-10-13T05:40:17;6.20;99.90
7000;DHT22;3540;53.242;10.408;2022-10-13T05:42:42;6.20;99.90
7000;DHT22;3540;53.242;10.408;2022-10-13T05:45:09;6.20;99.90
7000;DHT22;3540;53.242;10.408;2022-10-13T05:47:35;6.30;99.90
7000;DHT22;3540;53.242;10.408;2022-10-13T05:50:01;6.30;99.90
7000;DHT22;3540;53.242;10.408;2022-10-13T05:52:28;6.30;99.90
7000;DHT22;3540;53.242;10.408;2022-10-13T05:54:59;6.40;99.90
7000;DHT22;3540;53.242;10.408;2022-10-13T05:57:37;6.50;99.90
7000;DHT22;3540;53.242;10.408;2022-10-13T06:00:10;6.50;99.90
7000;DHT22;3540;53.242;10.408;2022-10-13T06:02:40;6.50;99.90
7000;DHT22;3540;53.242;10.408;2022-10-13T06:05:12;6.50;99.90
7000;DHT22;3540;53.242;10.408;2022-10-13T06:07:39;6.50;99.90
7000;DHT22;3540;53.242;10.408;2022-10-13T06:10:05;6.60;99.90
7000;DHT22;3540;53.242;10.408;2022-10-13T06:12:30;6.60;99.90
7000;DHT22;3540;53.242;10.408;2022-10-13T06:14:56;6.60;99.90
7000;DHT22;3540;53.242;10.408;2022-10-13T06:17:21;6.60;99.90
7000;DHT22;3540;53.242;10.408;2022-10-13T06:19:47;6.70;99.90
7000;DHT22;3540;53.242;10.408;2022-10-13T06:22:12;6.70;99.90
7000;DHT22;3540;53.242;10.408;2022-10-13T06:24:38;6.80;99.90
7000;DHT22;3540;53.242;10.408;2022-10-13T06:27:04;6.80;99.90
7000;DHT22;3540;53.242;10.408;2022-10-13T06:29:29;6.80;99.90
7000;DHT22;3540;53.242;10.408;2022-10-13T06:31:57;6.90;99.90
7000;DHT22;3540;53.242;10.408;2022-10-13T06:34:22;7.00;99.90
7000;DHT22;3540;53.242;10.408;2022-10-13T06:36:48;7.00;99.90
7000;DHT22;3540;53.242;10.408;2022-10-13T06:39:13;7.10;99.90
7000;DHT22;3540;53.242;10.408;2022-10-13T06:41:39;7.10;99.90
7000;DHT22;3540;53.242;10.408;2022-10-13T06:44:05;7.10;99.90
7000;DHT22;3540;53.242;10.408;2022-10-13T06:46:30;7.20;99.90
7000;DHT22;3540;53.242;10.408;2022-10-13T06:48:56;7.30;99.90
7000;DHT22;3540;53.242;10.408;2022-10-13T06:51:21;7.40;99.90
7000;DHT22;3540;53.242;10.408;2022-10-13T06:53:47;7.50;99.90
7000;DHT22;3540;53.242;10.408;2022-10-13T06:56:13;7.60;99.90
7000;DHT22;3540;53.242;10.408;2022-10-13T06:58:38;7.60;99.90
7000;DHT22;3540;53.242;10.408;2022-10-13T07:01:05;7.80;99.90
7000;DHT22;3540;53.242;10.408;2022-10-13T07:03:31;7.80;99.90
7000;DHT22;3540;53.242;10.408;2022-10-13T07:06:02;7.90;99.90
7000;DHT22;3540;53.242;10.408;2022-10-13T07:08:28;7.90;99.90
7000;DHT22;3540;53.242;10.408;2022-10-13T07:10:54;8.00;99.90
7000;DHT22;3540;53.242;10.408;2022-10-13T07:13:19;8.10;99.90
7000;DHT22;3540;53.242;10.408;2022-10-13T07:15:45;8.10;99.90
7000;DHT22;3540;53.242;10.408;2022-10-13T07:18:10;8.20;99.90
7000;DHT22;3540;53.242;10.408;2022-10-13T07:20:36;8.20;99.90
7000;DHT22;3540;53.242;10.408;2022-10-13T07:23:01;8.20;99.90
7000;DHT22;3540;53.242;10.408;2022-10-13T07:25:27;8.30;99.90
7000;DHT22;3540;53.242;10.408;2022-10-13T07:27:53;8.40;99.90
7000;DHT22;3540;53.242;10.408;2022-10-13T07:30:19;8.50;99.90
7000;DHT22;3540;53.242;10.408;2022-10-13T07:32:44;8.60;99.90
7000;DHT22;3540;53.242;10.408;2022-10-13T07:35:10;8.70;99.90
7000;DHT22;3540;53.242;10.408;2022-10-13T07:37:36;8.70;99.90
7000;DHT22;3540;53.242;10.408;2022-10-13T07:40:06;8.80;99.90
7000;DHT22;3540;53.242;10.408;2022-10-13T07:42:32;9.00;99.90
7000;DHT22;3540;53.242;10.408;2022-10-13T07:44:58;9.10;99.90
7000;DHT22;3540;53.242;10.408;2022-10-13T07:47:24;9.20;99.90
7000;DHT22;3540;53.242;10.408;2022-10-13T07:49:50;9.30;99.90
7000;DHT22;3540;53.242;10.408;2022-10-13T07:52:15;9.40;99.90
7000;DHT22;3540;53.242;10.408;2022-10-13T07:54:41;9.40;99.90
7000;DHT22;3540;53.242;10.408;2022-10-13T07:57:06;9.50;99.90
7000;DHT22;3540;53.242;10.408;2022-10-13T07:59:33;9.50;99.90
7000;DHT22;3540;53.242;10.408;2022-10-13T08:01:59;9.70;99.90
7000;DHT22;3540;53.242;10.408;2022-10-13T08:04:32;9.80;99.90
7000;DHT22;3540;53.242;10.408;2022-10-13T08:06:58;9.90;99.90
7000;DHT22;3540;53.242;10.408;2022-10-13T08:09:25;10.00;99.90
7000;DHT22;3540;53.242;10.408;2022-10-13T08:11:51;10.10;99.90
7000;DHT22;3540;53.242;10.408;2022-10-13T08:14:17;10.10;99.90
7000;DHT22;3540;53.242;10.408;2022-10-13T08:16:43;10.00;99.90
7000;DHT22;3540;53.242;10.408;2022-10-13T08:19:13;10.10;99.90
7000;DHT22;3540;53.242;10.408;2022-10-13T08:21:39;10.30;99.90
7000;DHT22;3540;53.242;10.408;2022-10-13T08:24:06;10.30;99.90
7000;DHT22;3540;53.242;10.408;2022-10-13T08:26:33;10.30;99.90
7000;DHT22;3540;53.242;10.408;2022-10-13T08:28:58;10.50;99.90
7000;DHT22;3540;53.242;10.408;2022-10-13T08:31:24;10.60;99.90
7000;DHT22;3540;53.242;10.408;2022-10-13T08:33:50;10.70;99.90
7000;DHT22;3540;53.242;10.408;2022-10-13T08:36:17;10.80;99.90
7000;DHT22;3540;53.242;10.408;2022-10-13T08:38:43;10.90;99.90
7000;DHT22;3540;53.242;10.408;2022-10-13T08:41:42;11.10;99.90
7000;DHT22;3540;53.242;10.408;2022-10-13T08:44:37;11.20;99.90
7000;DHT22;3540;53.242;10.408;2022-10-13T08:47:41;11.30;99.90
7000;DHT22;3540;53.242;10.408;2022-10-13T08:50:13;11.50;99.90
7000;DHT22;3540;53.242;10.408;2022-10-13T08:57:58;11.90;99.90
7000;DHT22;3540;53.242;10.408;2022-10-13T09:00:25;12.00;99.90
7000;DHT22;3540;53.242;10.408;2022-10-13T09:02:51;12.10;99.90
7000;DHT22;3540;53.242;10.408;2022-10-13T09:05:36;12.30;99.90
7000;DHT22;3540;53.242;10.408;2022-10-13T09:08:13;12.40;99.90
7000;DHT22;3540;53.242;10.408;2022-10-13T09:10:50;12.50;99.90
7000;DHT22;3540;53.242;10.408;2022-10-13T09:13:17;12.60;99.90
7000;DHT22;3540;53.242;10.408;2022-10-13T09:15:44;12.60;99.90
7000;DHT22;3540;53.242;10.408;2022-10-13T09:18:12;12.70;99.90
7000;DHT22;3540;53.242;10.408;2022-10-13T09:20:38;12.80;99.90
7000;DHT22;3540;53.242;10.408;2022-10-13T09:25:59;12.80;99.90
7000;DHT22;3540;53.242;10.408;2022-10-13T09:28:31;12.90;99.90
7000;DHT22;3540;53.242;10.408;2022-10-13T09:31:11;12.80;99.90
7000;DHT22;3540;53.242;10.408;2022-10-13T09:33:37;12.90;99.90
7000;DHT22;3540;53.242;10.408;2022-10-13T09:38:31;13.00;99.90
7000;DHT22;3540;53.242;10.408;2022-10-13T09:41:00;13.00;99.90
7000;DHT22;3540;53.242;10.408;2022-10-13T09:43:35;13.10;99.90
7000;DHT22;3540;53.242;10.408;2022-10-13T09:46:10;13.20;99.90
7000;DHT22;3540;53.242;10.408;2022-10-13T09:48:36;13.20;99.90
7000;DHT22;3540;53.242;10.408;2022-10-13T09:53:59;13.30;99.90
7000;DHT22;3540;53.242;10.408;2022-10-13T09:56:41;13.40;99.90
7000;DHT22;3540;53.242;10.408;2022-10-13T09:59:23;13.50;99.90
7000;DHT22;3540;53.242;10.408;2022-10-13T10:01:53;13.60;99.90
7000;DHT22;3540;53.242;10.408;2022-10-13T10:04:28;13.60;99.90
7000;DHT22;3540;53.242;10.408;2022-10-13T10:06:54;13.70;99.90
7000;DHT22;3540;53.242;10.408;2022-10-13T10:09:39;13.90;99.90
7000;DHT22;3540;53.242;10.408;2022-10-13T10:12:10;14.10;99.90
7000;DHT22;3540;53.242;10.408;2022-10-13T10:14:38;14.50;99.90
7000;DHT22;3540;53.242;10.408;2022-10-13T10:17:33;14.60;99.90
7000;DHT22;3540;53.242;10.408;2022-10-13T10:23:02;14.80;99.90
7000;DHT22;3540;53.242;10.408;2022-10-13T10:25:42;14.80;99.90
7000;DHT22;3540;53.242;10.408;2022-10-13T10:30:45;14.90;99.90
7000;DHT22;3540;53.242;10.408;2022-10-13T10:33:19;15.20;99.90
7000;DHT22;3540;53.242;10.408;2022-10-13T10:38:33;15.30;99.90
7000;DHT22;3540;53.242;10.408;2022-10-13T10:44:40;14.80;99.90
7000;DHT22;3540;53.242;10.408;2022-10-13T10:49:54;14.80;99.90
7000;DHT22;3540;53.242;10.408;2022-10-13T10:52:55;14.80;99.90
7000;DHT22;3540;53.242;10.408;2022-10-13T10:55:31;14.90;99.90
7000;DHT22;3540;53.242;10.408;2022-10-13T11:06:42;15.70;99.90
7000;DHT22;3540;53.242;10.408;2022-10-13T11:09:10;15.90;99.90
7000;DHT22;3540;53.242;10.408;2022-10-13T11:11:41;16.00;99.90
7000;DHT22;3540;53.242;10.408;2022-10-13T11:16:41;16.20;99.90
7000;DHT22;3540;53.242;10.408;2022-10-13T11:19:31;16.30;99.90
7000;DHT22;3540;53.242;10.408;2022-10-13T11:37:24;16.40;99.90
7000;DHT22;3540;53.242;10.408;2022-10-13T11:48:49;16.40;99.90
7000;DHT22;3540;53.242;10.408;2022-10-13T11:51:39;16.40;99.90
7000;DHT22;3540;53.242;10.408;2022-10-13T11:56:53;16.40;99.90
7000;DHT22;3540;53.242;10.408;2022-10-13T11:59:29;16.30;99.90
7000;DHT22;3540;53.242;10.408;2022-10-13T12:04:23;16.30;99.90
7000;DHT22;3540;53.242;10.408;2022-10-13T12:07:00;16.40;99.90
7000;DHT22;3540;53.242;10.408;2022-10-13T12:09:27;16.50;99.90
7000;DHT22;3540;53.242;10.408;2022-10-13T12:12:03;16.60;99.90
7000;DHT22;3540;53.242;10.408;2022-10-13T12:14:34;16.70;99.90
7000;DHT22;3540;53.242;10.408;2022-10-13T12:17:01;16.60;99.90
7000;DHT22;3540;53.242;10.408;2022-10-13T12:19:30;16.50;99.90
7000;DHT22;3540;53.242;10.408;2022-10-13T12:22:00;16.60;99.90
7000;DHT22;3540;53.242;10.408;2022-10-13T12:24:28;16.80;99.90
7000;DHT22;3540;53.242;10.408;2022-10-13T12:26:56;17.00;99.90
7000;DHT22;3540;53.242;10.408;2022-10-13T12:29:26;17.00;99.90
7000;DHT22;3540;53.242;10.408;2022-10-13T12:31:53;17.10;99.90
7000;DHT22;3540;53.242;10.408;2022-10-13T12:34:28;17.30;99.90
7000;DHT22;3540;53.242;10.408;2022-10-13T12:39:22;17.60;99.90
7000;DHT22;3540;53.242;10.408;2022-10-13T12:41:50;17.60;99.90
7000;DHT22;3540;53.242;10.408;2022-10-13T12:44:20;17.50;99.90
7000;DHT22;3540;53.242;10.408;2022-10-13T12:46:49;17.20;99.90
7000;DHT22;3540;53.242;10.408;2022-10-13T12:49:24;17.00;99.90
7000;DHT22;3540;53.242;10.408;2022-10-13T12:54:38;16.80;99.90
7000;DHT22;3540;53.242;10.408;2022-10-13T12:57:20;16.90;99.90
7000;DHT22;3540;53.242;10.408;2022-10-13T12:59:47;17.20;99.90
7000;DHT22;3540;53.242;10.408;2022-10-13T13:02:24;17.40;99.90
7000;DHT22;3540;53.242;10.408;2022-10-13T13:04:50;17.60;99.90
7000;DHT22;3540;53.242;10.408;2022-10-13T13:07:30;17.90;99.90
7000;DHT22;3540;53.242;10.408;2022-10-13T13:12:32;17.70;99.90
7000;DHT22;3540;53.242;10.408;2022-10-13T13:15:20;17.60;99.90
7000;DHT22;3540;53.242;10.408;2022-10-13T13:17:54;17.50;99.90
7000;DHT22;3540;53.242;10.408;2022-10-13T13:20:32;17.40;99.90
7000;DHT22;3540;53.242;10.408;2022-10-13T13:22:59;17.20;99.90
7000;DHT22;3540;53.242;10.408;2022-10-13T13:25:25;17.10;99.90
7000;DHT22;3540;53.242;10.408;2022-10-13T13:27:51;17.10;99.90
7000;DHT22;3540;53.242;10.408;2022-10-13T13:30:20;17.20;99.90
7000;DHT22;3540;53.242;10.408;2022-10-13T13:32:46;17.10;99.90
7000;DHT22;3540;53.242;10.408;2022-10-13T13:35:12;17.00;99.90
7000;DHT22;3540;53.242;10.408;2022-10-13T13:40:21;17.10;99.90
7000;DHT22;3540;53.242;10.408;2022-10-13T13:42:47;17.10;99.90
7000;DHT22;3540;53.242;10.408;2022-10-13T13:45:14;17.00;99.90
7000;DHT22;3540;53.242;10.408;2022-10-13T13:47:40;17.00;99.90
7000;DHT22;3540;53.242;10.408;2022-10-13T13:50:21;17.00;99.90
7000;DHT22;3540;53.242;10.408;2022-10-13T13:52:47;16.90;99.90
7000;DHT22;3540;53.242;10.408;2022-10-13T13:55:13;16.80;99.90
7000;DHT22;3540;53.242;10.408;2022-10-13T13:57:38;16.80;99.90
7000;DHT22;3540;53.242;10.408;2022-10-13T14:00:05;16.70;99.90
7000;DHT22;3540;53.242;10.408;2022-10-13T14:02:31;16.70;99.90
7000;DHT22;3540;53.242;10.408;2022-10-13T14:04:57;16.70;99.90
7000;DHT22;3540;53.242;10.408;2022-10-13T14:07:22;16.60;99.90
7000;DHT22;3540;53.242;10.408;2022-10-13T14:09:48;16.60;99.90
7000;DHT22;3540;53.242;10.408;2022-10-13T14:12:13;16.60;99.90
7000;DHT22;3540;53.242;10.408;2022-10-13T14:14:39;16.50;99.90
7000;DHT22;3540;53.242;10.408;2022-10-13T14:17:05;16.50;99.90
7000;DHT22;3540;53.242;10.408;2022-10-13T14:19:31;16.50;99.90
7000;DHT22;3540;53.242;10.408;2022-10-13T14:21:58;16.50;99.90
7000;DHT22;3540;53.242;10.408;2022-10-13T14:24:24;16.50;99.90
7000;DHT22;3540;53.242;10.408;2022-10-13T14:26:49;16.40;99.90
7000;DHT22;3540;53.242;10.408;2022-10-13T14:29:15;16.40;99.90
7000;DHT22;3540;53.242;10.408;2022-10-13T14:31:41;16.40;99.90
7000;DHT22;3540;53.242;10.408;2022-10-13T14:34:07;16.40;99.90
7000;DHT22;3540;53.242;10.408;2022-10-13T14:36:33;16.50;99.90
7000;DHT22;3540;53.242;10.408;2022-10-13T14:38:59;16.50;99.90
7000;DHT22;3540;53.242;10.408;2022-10-13T14:41:25;16.50;99.90
7000;DHT22;3540;53.242;10.408;2022-10-13T14:43:52;16.60;99.90
7000;DHT22;3540;53.242;10.408;2022-10-13T14:46:22;16.80;99.90
7000;DHT22;3540;53.242;10.408;2022-10-13T14:49:09;16.90;99.90
7000;DHT22;3540;53.242;10.408;2022-10-13T14:51:35;16.90;99.90
7000;DHT22;3540;53.242;10.408;2022-10-13T14:54:00;16.80;99.90
7000;DHT22;3540;53.242;10.408;2022-10-13T14:56:28;16.80;99.90
7000;DHT22;3540;53.242;10.408;2022-10-13T14:58:59;16.70;99.90
7000;DHT22;3540;53.242;10.408;2022-10-13T15:01:24;16.60;99.90
7000;DHT22;3540;53.242;10.408;2022-10-13T15:03:50;16.70;99.90
7000;DHT22;3540;53.242;10.408;2022-10-13T15:06:21;16.60;99.90
7000;DHT22;3540;53.242;10.408;2022-10-13T15:08:47;16.60;99.90
7000;DHT22;3540;53.242;10.408;2022-10-13T15:11:14;16.60;99.90
7000;DHT22;3540;53.242;10.408;2022-10-13T15:13:40;16.70;99.90
7000;DHT22;3540;53.242;10.408;2022-10-13T15:16:07;16.60;99.90
7000;DHT22;3540;53.242;10.408;2022-10-13T15:18:33;16.60;99.90
7000;DHT22;3540;53.242;10.408;2022-10-13T15:21:00;16.50;99.90
7000;DHT22;3540;53.242;10.408;2022-10-13T15:23:27;16.40;99.90
7000;DHT22;3540;53.242;10.408;2022-10-13T15:25:55;16.30;99.90
7000;DHT22;3540;53.242;10.408;2022-10-13T15:28:26;16.20;99.90
7000;DHT22;3540;53.242;10.408;2022-10-13T15:30:52;16.10;99.90
7000;DHT22;3540;53.242;10.408;2022-10-13T15:33:18;16.10;99.90
7000;DHT22;3540;53.242;10.408;2022-10-13T15:35:47;16.00;99.90
7000;DHT22;3540;53.242;10.408;2022-10-13T15:38:14;16.00;99.90
7000;DHT22;3540;53.242;10.408;2022-10-13T15:40:40;15.90;99.90
7000;DHT22;3540;53.242;10.408;2022-10-13T15:43:06;15.90;99.90
7000;DHT22;3540;53.242;10.408;2022-10-13T15:45:32;15.90;99.90
7000;DHT22;3540;53.242;10.408;2022-10-13T15:47:58;15.90;99.90
7000;DHT22;3540;53.242;10.408;2022-10-13T15:50:24;15.90;99.90
7000;DHT22;3540;53.242;10.408;2022-10-13T15:52:50;15.80;99.90
7000;DHT22;3540;53.242;10.408;2022-10-13T15:55:16;15.70;99.90
7000;DHT22;3540;53.242;10.408;2022-10-13T15:57:43;15.80;99.90
7000;DHT22;3540;53.242;10.408;2022-10-13T16:00:11;15.80;99.90
7000;DHT22;3540;53.242;10.408;2022-10-13T16:02:37;15.80;99.90
7000;DHT22;3540;53.242;10.408;2022-10-13T16:05:03;15.70;99.90
7000;DHT22;3540;53.242;10.408;2022-10-13T16:07:33;15.70;99.90
7000;DHT22;3540;53.242;10.408;2022-10-13T16:10:00;15.70;99.90
7000;DHT22;3540;53.242;10.408;2022-10-13T16:12:29;15.70;99.90
7000;DHT22;3540;53.242;10.408;2022-10-13T16:14:54;15.70;99.90
7000;DHT22;3540;53.242;10.408;2022-10-13T16:17:20;15.60;99.90
7000;DHT22;3540;53.242;10.408;2022-10-13T16:19:46;15.60;99.90
7000;DHT22;3540;53.242;10.408;2022-10-13T16:22:12;15.50;99.90
7000;DHT22;3540;53.242;10.408;2022-10-13T16:24:37;15.40;99.90
7000;DHT22;3540;53.242;10.408;2022-10-13T16:27:03;15.30;99.90
7000;DHT22;3540;53.242;10.408;2022-10-13T16:29:29;15.30;99.90
7000;DHT22;3540;53.242;10.408;2022-10-13T16:31:55;15.30;99.90
7000;DHT22;3540;53.242;10.408;2022-10-13T16:34:20;15.20;99.90
7000;DHT22;3540;53.242;10.408;2022-10-13T16:36:47;15.10;99.90
7000;DHT22;3540;53.242;10.408;2022-10-13T16:39:13;15.10;99.90
7000;DHT22;3540;53.242;10.408;2022-10-13T16:41:39;15.10;99.90
7000;DHT22;3540;53.242;10.408;2022-10-13T16:44:04;15.10;99.90
7000;DHT22;3540;53.242;10.408;2022-10-13T16:46:30;15.10;99.90
7000;DHT22;3540;53.242;10.408;2022-10-13T16:48:57;15.10;99.90
7000;DHT22;3540;53.242;10.408;2022-10-13T16:51:24;15.10;99.90
7000;DHT22;3540;53.242;10.408;2022-10-13T16:53:52;15.00;99.90
7000;DHT22;3540;53.242;10.408;2022-10-13T16:56:19;15.00;99.90
7000;DHT22;3540;53.242;10.408;2022-10-13T16:58:52;15.00;99.90
7000;DHT22;3540;53.242;10.408;2022-10-13T17:01:18;15.00;99.90
7000;DHT22;3540;53.242;10.408;2022-10-13T17:03:46;15.00;99.90
7000;DHT22;3540;53.242;10.408;2022-10-13T17:06:13;15.00;99.90
7000;DHT22;3540;53.242;10.408;2022-10-13T17:08:40;15.00;99.90
7000;DHT22;3540;53.242;10.408;2022-10-13T17:11:07;14.90;99.90
7000;DHT22;3540;53.242;10.408;2022-10-13T17:13:34;14.90;99.90
7000;DHT22;3540;53.242;10.408;2022-10-13T17:16:01;14.90;99.90
7000;DHT22;3540;53.242;10.408;2022-10-13T17:18:27;14.80;99.90
7000;DHT22;3540;53.242;10.408;2022-10-13T17:21:03;14.80;99.90
7000;DHT22;3540;53.242;10.408;2022-10-13T17:23:30;14.70;99.90
7000;DHT22;3540;53.242;10.408;2022-10-13T17:26:01;14.60;99.90
7000;DHT22;3540;53.242;10.408;2022-10-13T17:28:27;14.50;99.90
7000;DHT22;3540;53.242;10.408;2022-10-13T17:31:11;14.50;99.90
7000;DHT22;3540;53.242;10.408;2022-10-13T17:33:39;14.40;99.90
7000;DHT22;3540;53.242;10.408;2022-10-13T17:36:14;14.30;99.90
7000;DHT22;3540;53.242;10.408;2022-10-13T17:38:40;14.20;99.90
7000;DHT22;3540;53.242;10.408;2022-10-13T17:41:07;14.20;99.90
7000;DHT22;3540;53.242;10.408;2022-10-13T17:43:35;14.10;99.90
7000;DHT22;3540;53.242;10.408;2022-10-13T17:48:33;14.10;99.90
7000;DHT22;3540;53.242;10.408;2022-10-13T17:51:04;14.00;99.90
7000;DHT22;3540;53.242;10.408;2022-10-13T17:53:30;14.00;99.90